sensor_id;sensor_type;location;lat;lon;timestamp;P1;durP1;ratioP1;P2;durP2;ratioP2
11247;SDS011;5681;53.316;13.950;2023-07-02T00:00:47;6.97;;;3.67;;
11247;SDS011;5681;53.316;13.950;2023-07-02T00:03:16;6.25;;;2.97;;
11247;SDS011;5681;53.316;13.950;2023-07-02T00:05:43;6.43;;;2.85;;
11247;SDS011;5681;53.316;13.950;2023-07-02T00:08:09;4.40;;;2.75;;
11247;SDS011;5681;53.316;13.950;2023-07-02T00:10:36;4.40;;;3.13;;
11247;SDS011;5681;53.316;13.950;2023-07-02T00:13:03;4.38;;;2.88;;
11247;SDS011;5681;53.316;13.950;2023-07-02T00:15:30;7.75;;;2.60;;
11247;SDS011;5681;53.316;13.950;2023-07-02T00:17:56;5.18;;;3.00;;
11247;SDS011;5681;53.316;13.950;2023-07-02T00:20:23;5.45;;;3.00;;
11247;SDS011;5681;53.316;13.950;2023-07-02T00:22:49;5.72;;;2.67;;
11247;SDS011;5681;53.316;13.950;2023-07-02T00:25:16;8.63;;;3.05;;
11247;SDS011;5681;53.316;13.950;2023-07-02T00:27:42;4.15;;;2.67;;
11247;SDS011;5681;53.316;13.950;2023-07-02T00:30:10;4.25;;;2.50;;
11247;SDS011;5681;53.316;13.950;2023-07-02T00:32:37;3.63;;;2.60;;
11247;SDS011;5681;53.316;13.950;2023-07-02T00:35:03;4.07;;;2.63;;
11247;SDS011;5681;53.316;13.950;2023-07-02T00:37:30;3.83;;;2.60;;
11247;SDS011;5681;53.316;13.950;2023-07-02T00:39:56;5.60;;;3.03;;
11247;SDS011;5681;53.316;13.950;2023-07-02T00:42:23;7.93;;;2.58;;
11247;SDS011;5681;53.316;13.950;2023-07-02T00:44:54;5.28;;;3.13;;
11247;SDS011;5681;53.316;13.950;2023-07-02T00:47:23;3.20;;;2.50;;
11247;SDS011;5681;53.316;13.950;2023-07-02T00:49:49;7.22;;;2.60;;
11247;SDS011;5681;53.316;13.950;2023-07-02T00:52:16;5.53;;;2.55;;
11247;SDS011;5681;53.316;13.950;2023-07-02T00:54:45;5.40;;;2.45;;
11247;SDS011;5681;53.316;13.950;2023-07-02T00:57:11;3.80;;;2.50;;
11247;SDS011;5681;53.316;13.950;2023-07-02T00:59:38;3.60;;;2.55;;
11247;SDS011;5681;53.316;13.950;2023-07-02T01:02:04;5.20;;;2.50;;
11247;SDS011;5681;53.316;13.950;2023-07-02T01:04:32;3.70;;;2.25;;
11247;SDS011;5681;53.316;13.950;2023-07-02T01:06:59;6.88;;;2.65;;
11247;SDS011;5681;53.316;13.950;2023-07-02T01:09:25;3.20;;;2.30;;
11247;SDS011;5681;53.316;13.950;2023-07-02T01:11:53;6.05;;;2.50;;
11247;SDS011;5681;53.316;13.950;2023-07-02T01:14:22;4.05;;;2.30;;
11247;SDS011;5681;53.316;13.950;2023-07-02T01:16:51;3.75;;;2.40;;
11247;SDS011;5681;53.316;13.950;2023-07-02T01:19:19;6.72;;;2.70;;
11247;SDS011;5681;53.316;13.950;2023-07-02T01:21:49;4.93;;;2.53;;
11247;SDS011;5681;53.316;13.950;2023-07-02T01:24:16;5.30;;;2.60;;
11247;SDS011;5681;53.316;13.950;2023-07-02T01:26:42;7.90;;;3.08;;
11247;SDS011;5681;53.316;13.950;2023-07-02T01:29:14;6.13;;;2.60;;
11247;SDS011;5681;53.316;13.950;2023-07-02T01:31:40;3.90;;;2.83;;
11247;SDS011;5681;53.316;13.950;2023-07-02T01:34:07;7.22;;;3.03;;
11247;SDS011;5681;53.316;13.950;2023-07-02T01:36:34;3.30;;;2.50;;
11247;SDS011;5681;53.316;13.950;2023-07-02T01:39:02;3.50;;;2.80;;
11247;SDS011;5681;53.316;13.950;2023-07-02T01:41:28;5.18;;;2.90;;
11247;SDS011;5681;53.316;13.950;2023-07-02T01:43:54;5.68;;;3.00;;
11247;SDS011;5681;53.316;13.950;2023-07-02T01:46:21;6.88;;;3.00;;
11247;SDS011;5681;53.316;13.950;2023-07-02T01:48:47;6.13;;;2.78;;
11247;SDS011;5681;53.316;13.950;2023-07-02T01:51:13;4.72;;;2.95;;
11247;SDS011;5681;53.316;13.950;2023-07-02T01:53:40;5.90;;;2.97;;
11247;SDS011;5681;53.316;13.950;2023-07-02T01:56:07;7.10;;;3.38;;
11247;SDS011;5681;53.316;13.950;2023-07-02T01:58:34;5.63;;;2.80;;
11247;SDS011;5681;53.316;13.950;2023-07-02T02:01:00;6.47;;;3.10;;
11247;SDS011;5681;53.316;13.950;2023-07-02T02:03:26;7.28;;;3.28;;
11247;SDS011;5681;53.316;13.950;2023-07-02T02:05:53;7.97;;;3.45;;
11247;SDS011;5681;53.316;13.950;2023-07-02T02:08:19;8.57;;;3.50;;
11247;SDS011;5681;53.316;13.950;2023-07-02T02:10:45;6.53;;;2.83;;
11247;SDS011;5681;53.316;13.950;2023-07-02T02:13:13;6.50;;;3.45;;
11247;SDS011;5681;53.316;13.950;2023-07-02T02:15:39;5.47;;;3.60;;
11247;SDS011;5681;53.316;13.950;2023-07-02T02:18:07;8.70;;;3.63;;
11247;SDS011;5681;53.316;13.950;2023-07-02T02:20:33;4.30;;;2.80;;
11247;SDS011;5681;53.316;13.950;2023-07-02T02:22:59;8.32;;;3.60;;
11247;SDS011;5681;53.316;13.950;2023-07-02T02:25:25;6.30;;;3.05;;
11247;SDS011;5681;53.316;13.950;2023-07-02T02:27:52;6.15;;;3.20;;
11247;SDS011;5681;53.316;13.950;2023-07-02T02:30:19;6.38;;;2.95;;
11247;SDS011;5681;53.316;13.950;2023-07-02T02:32:46;6.60;;;2.95;;
11247;SDS011;5681;53.316;13.950;2023-07-02T02:35:14;7.15;;;2.92;;
11247;SDS011;5681;53.316;13.950;2023-07-02T02:37:40;6.20;;;2.83;;
11247;SDS011;5681;53.316;13.950;2023-07-02T02:40:07;5.78;;;3.03;;
11247;SDS011;5681;53.316;13.950;2023-07-02T02:42:35;6.68;;;3.13;;
11247;SDS011;5681;53.316;13.950;2023-07-02T02:45:01;5.75;;;2.90;;
11247;SDS011;5681;53.316;13.950;2023-07-02T02:47:29;4.38;;;2.88;;
11247;SDS011;5681;53.316;13.950;2023-07-02T02:49:55;15.10;;;3.55;;
11247;SDS011;5681;53.316;13.950;2023-07-02T02:52:21;9.20;;;3.15;;
11247;SDS011;5681;53.316;13.950;2023-07-02T02:54:49;6.60;;;3.13;;
11247;SDS011;5681;53.316;13.950;2023-07-02T02:57:17;4.80;;;3.10;;
11247;SDS011;5681;53.316;13.950;2023-07-02T02:59:44;6.55;;;3.30;;
11247;SDS011;5681;53.316;13.950;2023-07-02T03:02:10;7.20;;;3.30;;
11247;SDS011;5681;53.316;13.950;2023-07-02T03:04:38;10.43;;;3.42;;
11247;SDS011;5681;53.316;13.950;2023-07-02T03:07:06;11.07;;;3.38;;
11247;SDS011;5681;53.316;13.950;2023-07-02T03:09:32;7.80;;;3.42;;
11247;SDS011;5681;53.316;13.950;2023-07-02T03:11:59;5.80;;;3.45;;
11247;SDS011;5681;53.316;13.950;2023-07-02T03:14:25;5.05;;;3.22;;
11247;SDS011;5681;53.316;13.950;2023-07-02T03:16:51;7.45;;;3.50;;
11247;SDS011;5681;53.316;13.950;2023-07-02T03:19:18;6.07;;;3.70;;
11247;SDS011;5681;53.316;13.950;2023-07-02T03:21:45;7.68;;;3.85;;
11247;SDS011;5681;53.316;13.950;2023-07-02T03:24:12;10.95;;;4.07;;
11247;SDS011;5681;53.316;13.950;2023-07-02T03:26:38;6.63;;;3.67;;
11247;SDS011;5681;53.316;13.950;2023-07-02T03:29:05;5.95;;;3.67;;
11247;SDS011;5681;53.316;13.950;2023-07-02T03:31:32;9.05;;;3.60;;
11247;SDS011;5681;53.316;13.950;2023-07-02T03:33:59;8.50;;;3.90;;
11247;SDS011;5681;53.316;13.950;2023-07-02T03:36:27;9.70;;;4.03;;
11247;SDS011;5681;53.316;13.950;2023-07-02T03:38:55;8.05;;;3.65;;
11247;SDS011;5681;53.316;13.950;2023-07-02T03:41:21;8.82;;;3.72;;
11247;SDS011;5681;53.316;13.950;2023-07-02T03:43:48;5.88;;;3.72;;
11247;SDS011;5681;53.316;13.950;2023-07-02T03:46:14;5.90;;;3.83;;
11247;SDS011;5681;53.316;13.950;2023-07-02T03:48:40;7.45;;;3.88;;
11247;SDS011;5681;53.316;13.950;2023-07-02T03:51:07;7.32;;;4.05;;
11247;SDS011;5681;53.316;13.950;2023-07-02T03:53:33;7.82;;;4.60;;
11247;SDS011;5681;53.316;13.950;2023-07-02T03:56:01;5.90;;;4.10;;
11247;SDS011;5681;53.316;13.950;2023-07-02T03:58:27;7.10;;;3.85;;
11247;SDS011;5681;53.316;13.950;2023-07-02T04:00:53;10.77;;;4.60;;
11247;SDS011;5681;53.316;13.950;2023-07-02T04:03:20;13.98;;;4.85;;
11247;SDS011;5681;53.316;13.950;2023-07-02T04:05:46;10.40;;;4.82;;
11247;SDS011;5681;53.316;13.950;2023-07-02T04:08:12;8.38;;;5.40;;
11247;SDS011;5681;53.316;13.950;2023-07-02T04:10:39;10.82;;;5.82;;
11247;SDS011;5681;53.316;13.950;2023-07-02T04:13:06;10.45;;;5.75;;
11247;SDS011;5681;53.316;13.950;2023-07-02T04:15:33;9.43;;;5.85;;
11247;SDS011;5681;53.316;13.950;2023-07-02T04:17:59;7.20;;;5.40;;
11247;SDS011;5681;53.316;13.950;2023-07-02T04:20:26;10.68;;;5.90;;
11247;SDS011;5681;53.316;13.950;2023-07-02T04:22:53;7.30;;;5.80;;
11247;SDS011;5681;53.316;13.950;2023-07-02T04:25:19;6.20;;;5.50;;
11247;SDS011;5681;53.316;13.950;2023-07-02T04:27:46;8.15;;;5.80;;
11247;SDS011;5681;53.316;13.950;2023-07-02T04:30:14;8.52;;;5.57;;
11247;SDS011;5681;53.316;13.950;2023-07-02T04:32:40;10.20;;;5.72;;
11247;SDS011;5681;53.316;13.950;2023-07-02T04:35:07;9.02;;;5.63;;
11247;SDS011;5681;53.316;13.950;2023-07-02T04:37:33;12.15;;;5.47;;
11247;SDS011;5681;53.316;13.950;2023-07-02T04:40:00;7.82;;;5.20;;
11247;SDS011;5681;53.316;13.950;2023-07-02T04:42:28;11.60;;;5.75;;
11247;SDS011;5681;53.316;13.950;2023-07-02T04:44:59;9.93;;;5.32;;
11247;SDS011;5681;53.316;13.950;2023-07-02T04:47:29;8.32;;;4.82;;
11247;SDS011;5681;53.316;13.950;2023-07-02T04:49:56;5.25;;;4.57;;
11247;SDS011;5681;53.316;13.950;2023-07-02T04:52:22;8.18;;;4.72;;
11247;SDS011;5681;53.316;13.950;2023-07-02T04:54:48;8.90;;;4.75;;
11247;SDS011;5681;53.316;13.950;2023-07-02T04:57:15;12.77;;;4.70;;
11247;SDS011;5681;53.316;13.950;2023-07-02T04:59:41;7.32;;;4.95;;
11247;SDS011;5681;53.316;13.950;2023-07-02T05:02:08;7.38;;;4.70;;
11247;SDS011;5681;53.316;13.950;2023-07-02T05:04:36;9.02;;;4.88;;
11247;SDS011;5681;53.316;13.950;2023-07-02T05:07:03;9.98;;;4.55;;
11247;SDS011;5681;53.316;13.950;2023-07-02T05:09:29;10.73;;;4.57;;
11247;SDS011;5681;53.316;13.950;2023-07-02T05:11:56;8.75;;;4.32;;
11247;SDS011;5681;53.316;13.950;2023-07-02T05:14:22;6.82;;;4.00;;
11247;SDS011;5681;53.316;13.950;2023-07-02T05:16:49;8.45;;;4.32;;
11247;SDS011;5681;53.316;13.950;2023-07-02T05:19:15;5.45;;;4.30;;
11247;SDS011;5681;53.316;13.950;2023-07-02T05:21:43;7.78;;;4.22;;
11247;SDS011;5681;53.316;13.950;2023-07-02T05:24:09;7.57;;;4.60;;
11247;SDS011;5681;53.316;13.950;2023-07-02T05:26:36;7.32;;;4.65;;
11247;SDS011;5681;53.316;13.950;2023-07-02T05:29:02;12.75;;;4.15;;
11247;SDS011;5681;53.316;13.950;2023-07-02T05:31:30;6.60;;;4.50;;
11247;SDS011;5681;53.316;13.950;2023-07-02T05:33:56;7.68;;;4.10;;
11247;SDS011;5681;53.316;13.950;2023-07-02T05:36:23;5.93;;;3.67;;
11247;SDS011;5681;53.316;13.950;2023-07-02T05:38:50;5.45;;;3.78;;
11247;SDS011;5681;53.316;13.950;2023-07-02T05:41:20;11.40;;;4.45;;
11247;SDS011;5681;53.316;13.950;2023-07-02T05:43:46;6.30;;;4.45;;
11247;SDS011;5681;53.316;13.950;2023-07-02T05:46:13;8.57;;;4.15;;
11247;SDS011;5681;53.316;13.950;2023-07-02T05:48:40;9.13;;;4.10;;
11247;SDS011;5681;53.316;13.950;2023-07-02T05:51:06;6.45;;;3.85;;
11247;SDS011;5681;53.316;13.950;2023-07-02T05:53:33;13.60;;;3.65;;
11247;SDS011;5681;53.316;13.950;2023-07-02T05:56:01;6.80;;;3.53;;
11247;SDS011;5681;53.316;13.950;2023-07-02T05:58:27;9.48;;;3.70;;
11247;SDS011;5681;53.316;13.950;2023-07-02T06:00:55;6.72;;;3.60;;
11247;SDS011;5681;53.316;13.950;2023-07-02T06:03:21;7.15;;;3.40;;
11247;SDS011;5681;53.316;13.950;2023-07-02T06:05:47;5.57;;;3.08;;
11247;SDS011;5681;53.316;13.950;2023-07-02T06:08:14;10.05;;;3.20;;
11247;SDS011;5681;53.316;13.950;2023-07-02T06:10:41;6.45;;;3.25;;
11247;SDS011;5681;53.316;13.950;2023-07-02T06:13:09;7.80;;;3.40;;
11247;SDS011;5681;53.316;13.950;2023-07-02T06:15:35;6.70;;;3.15;;
11247;SDS011;5681;53.316;13.950;2023-07-02T06:18:02;7.60;;;3.20;;
11247;SDS011;5681;53.316;13.950;2023-07-02T06:20:28;8.45;;;3.40;;
11247;SDS011;5681;53.316;13.950;2023-07-02T06:22:54;7.45;;;3.53;;
11247;SDS011;5681;53.316;13.950;2023-07-02T06:25:21;5.93;;;2.60;;
11247;SDS011;5681;53.316;13.950;2023-07-02T06:27:47;8.63;;;3.30;;
11247;SDS011;5681;53.316;13.950;2023-07-02T06:30:15;6.93;;;3.20;;
11247;SDS011;5681;53.316;13.950;2023-07-02T06:32:41;10.02;;;2.88;;
11247;SDS011;5681;53.316;13.950;2023-07-02T06:35:08;9.15;;;3.03;;
11247;SDS011;5681;53.316;13.950;2023-07-02T06:37:34;8.38;;;3.00;;
11247;SDS011;5681;53.316;13.950;2023-07-02T06:40:01;12.48;;;3.15;;
11247;SDS011;5681;53.316;13.950;2023-07-02T06:42:28;9.27;;;3.40;;
11247;SDS011;5681;53.316;13.950;2023-07-02T06:44:54;7.47;;;3.13;;
11247;SDS011;5681;53.316;13.950;2023-07-02T06:47:22;12.68;;;3.20;;
11247;SDS011;5681;53.316;13.950;2023-07-02T06:49:48;9.95;;;3.30;;
11247;SDS011;5681;53.316;13.950;2023-07-02T06:52:14;11.27;;;2.70;;
11247;SDS011;5681;53.316;13.950;2023-07-02T06:54:41;6.40;;;2.70;;
11247;SDS011;5681;53.316;13.950;2023-07-02T06:57:07;6.57;;;3.03;;
11247;SDS011;5681;53.316;13.950;2023-07-02T06:59:33;8.70;;;2.60;;
11247;SDS011;5681;53.316;13.950;2023-07-02T07:02:01;8.27;;;2.95;;
11247;SDS011;5681;53.316;13.950;2023-07-02T07:04:29;8.98;;;3.00;;
11247;SDS011;5681;53.316;13.950;2023-07-02T07:06:55;8.68;;;3.05;;
11247;SDS011;5681;53.316;13.950;2023-07-02T07:09:21;7.60;;;3.30;;
11247;SDS011;5681;53.316;13.950;2023-07-02T07:11:48;6.63;;;3.17;;
11247;SDS011;5681;53.316;13.950;2023-07-02T07:14:15;6.30;;;3.03;;
11247;SDS011;5681;53.316;13.950;2023-07-02T07:16:41;10.85;;;3.30;;
11247;SDS011;5681;53.316;13.950;2023-07-02T07:19:08;8.05;;;3.17;;
11247;SDS011;5681;53.316;13.950;2023-07-02T07:21:35;7.75;;;3.20;;
11247;SDS011;5681;53.316;13.950;2023-07-02T07:24:02;10.25;;;4.00;;
11247;SDS011;5681;53.316;13.950;2023-07-02T07:26:28;12.15;;;3.50;;
11247;SDS011;5681;53.316;13.950;2023-07-02T07:28:55;6.57;;;3.20;;
11247;SDS011;5681;53.316;13.950;2023-07-02T07:31:22;7.20;;;3.60;;
11247;SDS011;5681;53.316;13.950;2023-07-02T07:33:49;11.57;;;3.55;;
11247;SDS011;5681;53.316;13.950;2023-07-02T07:36:15;7.05;;;3.80;;
11247;SDS011;5681;53.316;13.950;2023-07-02T07:38:44;12.10;;;3.92;;
11247;SDS011;5681;53.316;13.950;2023-07-02T07:41:10;9.63;;;3.78;;
11247;SDS011;5681;53.316;13.950;2023-07-02T07:43:36;8.07;;;3.53;;
11247;SDS011;5681;53.316;13.950;2023-07-02T07:46:03;9.55;;;3.75;;
11247;SDS011;5681;53.316;13.950;2023-07-02T07:48:29;9.60;;;3.45;;
11247;SDS011;5681;53.316;13.950;2023-07-02T07:50:55;16.30;;;3.95;;
11247;SDS011;5681;53.316;13.950;2023-07-02T07:53:22;10.18;;;4.10;;
11247;SDS011;5681;53.316;13.950;2023-07-02T07:55:49;9.35;;;4.13;;
11247;SDS011;5681;53.316;13.950;2023-07-02T07:58:16;17.35;;;4.45;;
11247;SDS011;5681;53.316;13.950;2023-07-02T08:00:42;9.57;;;4.15;;
11247;SDS011;5681;53.316;13.950;2023-07-02T08:03:09;8.15;;;3.90;;
11247;SDS011;5681;53.316;13.950;2023-07-02T08:05:36;12.55;;;4.53;;
11247;SDS011;5681;53.316;13.950;2023-07-02T08:08:02;10.02;;;4.60;;
11247;SDS011;5681;53.316;13.950;2023-07-02T08:10:28;12.27;;;4.75;;
11247;SDS011;5681;53.316;13.950;2023-07-02T08:12:56;9.05;;;4.78;;
11247;SDS011;5681;53.316;13.950;2023-07-02T08:15:22;8.93;;;4.20;;
11247;SDS011;5681;53.316;13.950;2023-07-02T08:17:49;8.20;;;4.03;;
11247;SDS011;5681;53.316;13.950;2023-07-02T08:20:19;9.80;;;4.97;;
11247;SDS011;5681;53.316;13.950;2023-07-02T08:22:45;9.00;;;4.30;;
11247;SDS011;5681;53.316;13.950;2023-07-02T08:25:12;12.25;;;4.50;;
11247;SDS011;5681;53.316;13.950;2023-07-02T08:27:38;11.68;;;4.50;;
11247;SDS011;5681;53.316;13.950;2023-07-02T08:30:06;8.40;;;4.80;;
11247;SDS011;5681;53.316;13.950;2023-07-02T08:32:33;8.45;;;4.30;;
11247;SDS011;5681;53.316;13.950;2023-07-02T08:34:59;9.85;;;4.57;;
11247;SDS011;5681;53.316;13.950;2023-07-02T08:37:26;10.73;;;4.60;;
11247;SDS011;5681;53.316;13.950;2023-07-02T08:39:52;14.50;;;4.70;;
11247;SDS011;5681;53.316;13.950;2023-07-02T08:42:18;14.65;;;4.95;;
11247;SDS011;5681;53.316;13.950;2023-07-02T08:44:45;9.10;;;4.90;;
11247;SDS011;5681;53.316;13.950;2023-07-02T08:47:13;10.80;;;5.03;;
11247;SDS011;5681;53.316;13.950;2023-07-02T08:49:39;16.33;;;4.95;;
11247;SDS011;5681;53.316;13.950;2023-07-02T08:52:06;12.95;;;5.07;;
11247;SDS011;5681;53.316;13.950;2023-07-02T08:54:32;13.20;;;5.15;;
11247;SDS011;5681;53.316;13.950;2023-07-02T08:56:59;13.75;;;5.60;;
11247;SDS011;5681;53.316;13.950;2023-07-02T08:59:30;10.63;;;5.07;;
11247;SDS011;5681;53.316;13.950;2023-07-02T09:01:56;11.68;;;5.18;;
11247;SDS011;5681;53.316;13.950;2023-07-02T09:04:24;11.15;;;5.28;;
11247;SDS011;5681;53.316;13.950;2023-07-02T09:06:51;11.35;;;5.28;;
11247;SDS011;5681;53.316;13.950;2023-07-02T09:09:28;12.90;;;5.22;;
11247;SDS011;5681;53.316;13.950;2023-07-02T09:11:55;12.00;;;5.65;;
11247;SDS011;5681;53.316;13.950;2023-07-02T09:14:25;18.77;;;5.40;;
11247;SDS011;5681;53.316;13.950;2023-07-02T09:17:02;16.95;;;5.57;;
11247;SDS011;5681;53.316;13.950;2023-07-02T09:19:30;12.98;;;5.22;;
11247;SDS011;5681;53.316;13.950;2023-07-02T09:21:57;14.35;;;5.35;;
11247;SDS011;5681;53.316;13.950;2023-07-02T09:24:25;14.77;;;5.47;;
11247;SDS011;5681;53.316;13.950;2023-07-02T09:26:53;16.58;;;4.75;;
11247;SDS011;5681;53.316;13.950;2023-07-02T09:29:21;15.00;;;5.82;;
11247;SDS011;5681;53.316;13.950;2023-07-02T09:31:48;13.15;;;4.97;;
11247;SDS011;5681;53.316;13.950;2023-07-02T09:34:14;11.30;;;5.60;;
11247;SDS011;5681;53.316;13.950;2023-07-02T09:36:43;9.20;;;5.43;;
11247;SDS011;5681;53.316;13.950;2023-07-02T09:39:11;11.60;;;5.10;;
11247;SDS011;5681;53.316;13.950;2023-07-02T09:41:39;12.63;;;5.53;;
11247;SDS011;5681;53.316;13.950;2023-07-02T09:44:06;10.48;;;5.28;;
11247;SDS011;5681;53.316;13.950;2023-07-02T09:46:34;13.50;;;5.18;;
11247;SDS011;5681;53.316;13.950;2023-07-02T09:49:03;17.02;;;5.68;;
11247;SDS011;5681;53.316;13.950;2023-07-02T09:51:29;10.30;;;5.35;;
11247;SDS011;5681;53.316;13.950;2023-07-02T09:53:57;10.88;;;5.35;;
11247;SDS011;5681;53.316;13.950;2023-07-02T09:56:24;7.93;;;4.60;;
11247;SDS011;5681;53.316;13.950;2023-07-02T09:58:50;10.40;;;5.50;;
11247;SDS011;5681;53.316;13.950;2023-07-02T10:01:16;12.73;;;5.18;;
11247;SDS011;5681;53.316;13.950;2023-07-02T10:03:43;11.60;;;5.45;;
11247;SDS011;5681;53.316;13.950;2023-07-02T10:06:09;9.95;;;5.25;;
11247;SDS011;5681;53.316;13.950;2023-07-02T10:08:36;15.10;;;5.82;;
11247;SDS011;5681;53.316;13.950;2023-07-02T10:11:12;13.90;;;5.60;;
11247;SDS011;5681;53.316;13.950;2023-07-02T10:13:39;12.30;;;4.93;;
11247;SDS011;5681;53.316;13.950;2023-07-02T10:16:06;10.02;;;5.70;;
11247;SDS011;5681;53.316;13.950;2023-07-02T10:18:33;11.50;;;5.45;;
11247;SDS011;5681;53.316;13.950;2023-07-02T10:20:59;12.82;;;5.28;;
11247;SDS011;5681;53.316;13.950;2023-07-02T10:23:33;11.25;;;5.53;;
11247;SDS011;5681;53.316;13.950;2023-07-02T10:26:09;20.45;;;5.95;;
11247;SDS011;5681;53.316;13.950;2023-07-02T10:28:37;13.75;;;5.70;;
11247;SDS011;5681;53.316;13.950;2023-07-02T10:31:03;12.73;;;5.40;;
11247;SDS011;5681;53.316;13.950;2023-07-02T10:33:30;17.60;;;5.50;;
11247;SDS011;5681;53.316;13.950;2023-07-02T10:35:56;13.35;;;5.65;;
11247;SDS011;5681;53.316;13.950;2023-07-02T10:38:23;13.23;;;5.97;;
11247;SDS011;5681;53.316;13.950;2023-07-02T10:40:53;9.85;;;5.70;;
11247;SDS011;5681;53.316;13.950;2023-07-02T10:43:23;12.77;;;5.63;;
11247;SDS011;5681;53.316;13.950;2023-07-02T10:45:51;13.57;;;5.30;;
11247;SDS011;5681;53.316;13.950;2023-07-02T10:48:18;9.65;;;5.55;;
11247;SDS011;5681;53.316;13.950;2023-07-02T10:50:45;12.88;;;5.82;;
11247;SDS011;5681;53.316;13.950;2023-07-02T10:53:14;13.98;;;5.68;;
11247;SDS011;5681;53.316;13.950;2023-07-02T10:55:41;11.00;;;5.57;;
11247;SDS011;5681;53.316;13.950;2023-07-02T10:58:08;10.50;;;5.50;;
11247;SDS011;5681;53.316;13.950;2023-07-02T11:00:43;12.73;;;5.83;;
11247;SDS011;5681;53.316;13.950;2023-07-02T11:03:17;13.52;;;6.03;;
11247;SDS011;5681;53.316;13.950;2023-07-02T11:05:44;13.80;;;5.57;;
11247;SDS011;5681;53.316;13.950;2023-07-02T11:08:10;11.75;;;5.93;;
11247;SDS011;5681;53.316;13.950;2023-07-02T11:10:37;11.00;;;5.55;;
11247;SDS011;5681;53.316;13.950;2023-07-02T11:13:09;10.52;;;6.05;;
11247;SDS011;5681;53.316;13.950;2023-07-02T11:15:36;14.20;;;6.43;;
11247;SDS011;5681;53.316;13.950;2023-07-02T11:18:08;11.27;;;5.32;;
11247;SDS011;5681;53.316;13.950;2023-07-02T11:20:36;14.82;;;6.50;;
11247;SDS011;5681;53.316;13.950;2023-07-02T11:23:03;12.95;;;5.85;;
11247;SDS011;5681;53.316;13.950;2023-07-02T11:25:29;13.57;;;5.90;;
11247;SDS011;5681;53.316;13.950;2023-07-02T11:28:01;10.40;;;6.00;;
11247;SDS011;5681;53.316;13.950;2023-07-02T11:30:28;11.82;;;5.97;;
11247;SDS011;5681;53.316;13.950;2023-07-02T11:32:55;11.93;;;5.95;;
11247;SDS011;5681;53.316;13.950;2023-07-02T11:35:22;12.95;;;6.00;;
11247;SDS011;5681;53.316;13.950;2023-07-02T11:37:50;15.00;;;5.55;;
11247;SDS011;5681;53.316;13.950;2023-07-02T11:40:17;12.38;;;5.80;;
11247;SDS011;5681;53.316;13.950;2023-07-02T11:42:43;12.63;;;6.00;;
11247;SDS011;5681;53.316;13.950;2023-07-02T11:45:10;9.48;;;5.68;;
11247;SDS011;5681;53.316;13.950;2023-07-02T11:47:37;17.38;;;6.30;;
11247;SDS011;5681;53.316;13.950;2023-07-02T11:50:04;9.60;;;5.90;;
11247;SDS011;5681;53.316;13.950;2023-07-02T11:52:31;10.85;;;6.13;;
11247;SDS011;5681;53.316;13.950;2023-07-02T11:54:59;13.27;;;5.75;;
11247;SDS011;5681;53.316;13.950;2023-07-02T11:57:25;12.65;;;6.13;;
11247;SDS011;5681;53.316;13.950;2023-07-02T11:59:51;13.15;;;6.55;;
11247;SDS011;5681;53.316;13.950;2023-07-02T12:02:18;12.68;;;6.03;;
11247;SDS011;5681;53.316;13.950;2023-07-02T12:04:44;11.52;;;5.90;;
11247;SDS011;5681;53.316;13.950;2023-07-02T12:07:11;11.85;;;5.50;;
11247;SDS011;5681;53.316;13.950;2023-07-02T12:09:38;13.30;;;5.80;;
11247;SDS011;5681;53.316;13.950;2023-07-02T12:12:06;10.98;;;6.22;;
11247;SDS011;5681;53.316;13.950;2023-07-02T12:14:33;10.50;;;5.95;;
11247;SDS011;5681;53.316;13.950;2023-07-02T12:16:59;10.15;;;6.03;;
11247;SDS011;5681;53.316;13.950;2023-07-02T12:19:26;12.25;;;6.20;;
11247;SDS011;5681;53.316;13.950;2023-07-02T12:21:52;13.23;;;6.03;;
11247;SDS011;5681;53.316;13.950;2023-07-02T12:24:18;11.60;;;6.20;;
11247;SDS011;5681;53.316;13.950;2023-07-02T12:26:45;15.27;;;6.13;;
11247;SDS011;5681;53.316;13.950;2023-07-02T12:29:12;12.02;;;6.45;;
11247;SDS011;5681;53.316;13.950;2023-07-02T12:31:39;14.10;;;6.25;;
11247;SDS011;5681;53.316;13.950;2023-07-02T12:34:05;12.52;;;6.82;;
11247;SDS011;5681;53.316;13.950;2023-07-02T12:36:31;12.55;;;6.85;;
11247;SDS011;5681;53.316;13.950;2023-07-02T12:38:58;17.15;;;6.82;;
11247;SDS011;5681;53.316;13.950;2023-07-02T12:41:24;17.42;;;6.57;;
11247;SDS011;5681;53.316;13.950;2023-07-02T12:43:50;15.90;;;6.60;;
11247;SDS011;5681;53.316;13.950;2023-07-02T12:46:18;14.32;;;6.40;;
11247;SDS011;5681;53.316;13.950;2023-07-02T12:48:44;11.80;;;5.68;;
11247;SDS011;5681;53.316;13.950;2023-07-02T12:51:11;13.60;;;5.70;;
11247;SDS011;5681;53.316;13.950;2023-07-02T12:53:37;13.05;;;5.97;;
11247;SDS011;5681;53.316;13.950;2023-07-02T12:56:04;12.02;;;5.88;;
11247;SDS011;5681;53.316;13.950;2023-07-02T12:58:31;10.25;;;6.30;;
11247;SDS011;5681;53.316;13.950;2023-07-02T13:00:57;15.27;;;6.43;;
11247;SDS011;5681;53.316;13.950;2023-07-02T13:03:25;12.93;;;6.15;;
11247;SDS011;5681;53.316;13.950;2023-07-02T13:05:51;16.70;;;6.57;;
11247;SDS011;5681;53.316;13.950;2023-07-02T13:08:17;12.07;;;6.45;;
11247;SDS011;5681;53.316;13.950;2023-07-02T13:10:44;10.27;;;5.55;;
11247;SDS011;5681;53.316;13.950;2023-07-02T13:13:10;11.70;;;6.15;;
11247;SDS011;5681;53.316;13.950;2023-07-02T13:15:36;16.38;;;6.57;;
11247;SDS011;5681;53.316;13.950;2023-07-02T13:18:03;12.68;;;6.28;;
11247;SDS011;5681;53.316;13.950;2023-07-02T13:20:31;12.13;;;6.25;;
11247;SDS011;5681;53.316;13.950;2023-07-02T13:22:57;9.60;;;5.13;;
11247;SDS011;5681;53.316;13.950;2023-07-02T13:25:24;19.08;;;5.53;;
11247;SDS011;5681;53.316;13.950;2023-07-02T13:27:50;11.90;;;5.03;;
11247;SDS011;5681;53.316;13.950;2023-07-02T13:30:16;11.57;;;5.60;;
11247;SDS011;5681;53.316;13.950;2023-07-02T13:32:43;10.00;;;5.63;;
11247;SDS011;5681;53.316;13.950;2023-07-02T13:35:09;14.98;;;5.57;;
11247;SDS011;5681;53.316;13.950;2023-07-02T13:37:37;11.13;;;5.50;;
11247;SDS011;5681;53.316;13.950;2023-07-02T13:40:03;11.27;;;5.28;;
11247;SDS011;5681;53.316;13.950;2023-07-02T13:42:32;14.18;;;5.70;;
11247;SDS011;5681;53.316;13.950;2023-07-02T13:44:58;12.88;;;5.88;;
11247;SDS011;5681;53.316;13.950;2023-07-02T13:47:24;13.38;;;4.95;;
11247;SDS011;5681;53.316;13.950;2023-07-02T13:49:53;13.15;;;5.72;;
11247;SDS011;5681;53.316;13.950;2023-07-02T13:52:20;16.85;;;6.05;;
11247;SDS011;5681;53.316;13.950;2023-07-02T13:54:47;13.85;;;5.70;;
11247;SDS011;5681;53.316;13.950;2023-07-02T13:57:13;17.92;;;6.28;;
11247;SDS011;5681;53.316;13.950;2023-07-02T13:59:41;14.95;;;6.15;;
11247;SDS011;5681;53.316;13.950;2023-07-02T14:02:08;14.52;;;5.75;;
11247;SDS011;5681;53.316;13.950;2023-07-02T14:04:34;13.27;;;6.47;;
11247;SDS011;5681;53.316;13.950;2023-07-02T14:07:02;12.77;;;5.90;;
11247;SDS011;5681;53.316;13.950;2023-07-02T14:09:28;11.82;;;5.68;;
11247;SDS011;5681;53.316;13.950;2023-07-02T14:11:55;10.82;;;5.53;;
11247;SDS011;5681;53.316;13.950;2023-07-02T14:14:21;11.20;;;5.10;;
11247;SDS011;5681;53.316;13.950;2023-07-02T14:16:49;10.30;;;5.05;;
11247;SDS011;5681;53.316;13.950;2023-07-02T14:19:15;12.55;;;5.15;;
11247;SDS011;5681;53.316;13.950;2023-07-02T14:21:42;12.23;;;4.90;;
11247;SDS011;5681;53.316;13.950;2023-07-02T14:24:08;13.45;;;5.38;;
11247;SDS011;5681;53.316;13.950;2023-07-02T14:26:35;15.65;;;5.43;;
11247;SDS011;5681;53.316;13.950;2023-07-02T14:29:01;11.13;;;5.68;;
11247;SDS011;5681;53.316;13.950;2023-07-02T14:31:28;14.65;;;5.18;;
11247;SDS011;5681;53.316;13.950;2023-07-02T14:33:55;10.45;;;5.22;;
11247;SDS011;5681;53.316;13.950;2023-07-02T14:36:22;11.55;;;4.60;;
11247;SDS011;5681;53.316;13.950;2023-07-02T14:38:48;12.02;;;4.75;;